ADDS METAR Data INFO
IDs: Format: Raw Decoded Include TAF

Data at: 0733 UTC 18 Oct 2017

KTVF 180701Z AUTO 20016G21KT 10SM CLR 15/04 A2961 RMK AO2 SLP026 T01500044
KTVF 180601Z AUTO 20013KT 10SM CLR 15/04 A2962 RMK AO2 SLP030 T01500039 10183 20150 58015
KTVF 180501Z AUTO 20014G20KT 10SM CLR 16/04 A2963 RMK AO2 SLP034 T01610039 401610161
KTVF 180401Z AUTO 19010KT 10SM CLR 16/04 A2965 RMK AO2 SLP041 T01560044
KTVF 180301Z AUTO 19012KT 10SM CLR 16/05 A2966 RMK AO2 SLP048 T01560050 58011
KTVF 180201Z AUTO 20011KT 10SM CLR 16/04 A2967 RMK AO2 SLP055 T01610044
KTVF 180101Z AUTO 19010KT 10SM CLR 16/04 A2969 RMK AO2 SLP061 T01610039
KTVF 180001Z AUTO 19013KT 10SM CLR 18/04 A2970 RMK AO2 SLP063 T01830039 10222 20183 56020
KTVF 172301Z AUTO 19013KT 10SM CLR 21/04 A2971 RMK AO2 SLP065 T02060039
KTVF 172201Z AUTO 19017KT 10SM FEW002 22/05 A2972 RMK AO2 SLP070 T02170050
KTVF 172147Z AUTO 20018G24KT 10SM FEW002 22/05 A2973 RMK AO2
KTVF 172101Z AUTO 20019G25KT 10SM CLR 22/04 A2975 RMK AO2 SLP077 T02220039 58030
KTVF 172001Z AUTO 20018G23KT 10SM CLR 22/03 A2977 RMK AO2 SLP084 T02170028
KTVF 171901Z AUTO 20018G23KT 10SM CLR 21/02 A2980 RMK AO2 SLP095 T02060022
KTVF 171801Z AUTO 21018G22KT 10SM CLR 18/03 A2984 RMK AO2 SLP110 T01830028 10183 20022 58018
KTVF 171701Z AUTO 21014KT 10SM CLR 17/03 A2986 RMK AO2 SLP116 T01670028
KTVF 171601Z AUTO 19012KT 10SM CLR 14/04 A2988 RMK AO2 SLP124 T01390039
KTVF 171501Z AUTO 17008KT 10SM CLR 09/03 A2990 RMK AO2 SLP132 T00890028 57002
KTVF 171401Z AUTO 16005KT 10SM CLR 05/02 A2991 RMK AO2 SLP138 T00500017
KTVF 171301Z AUTO 18006KT 10SM CLR 03/01 A2992 RMK AO2 SLP140 T00330006
KTVF 171201Z AUTO 17006KT 10SM CLR 04/01 A2992 RMK AO2 SLP139 T00390006 10083 20017 53002
KTVF 171101Z AUTO 16005KT 10SM CLR 03/00 A2992 RMK AO2 SLP139 T00330000
KTVF 171001Z AUTO 14004KT 10SM CLR 04/01 A2992 RMK AO2 SLP137 T00440006
KTVF 170901Z AUTO 18003KT 10SM CLR 04/01 A2991 RMK AO2 SLP135 T00440006 50003
KTVF 170801Z AUTO 00000KT 10SM CLR 07/01 A2991 RMK AO2 SLP134 T00670011
KTVF 170701Z AUTO 24003KT 10SM CLR 08/01 A2991 RMK AO2 SLP135 T00830011
KTVF 170601Z AUTO 28003KT 10SM CLR 08/01 A2991 RMK AO2 SLP134 T00830011 10150 20078 53012
KTVF 170501Z AUTO 30006KT 10SM CLR 11/02 A2990 RMK AO2 SLP132 T01060017 401060106
KTVF 170401Z AUTO 29008KT 10SM CLR 11/02 A2989 RMK AO2 SLP129 T01110017
KTVF 170301Z AUTO 26008KT 10SM CLR 11/02 A2988 RMK AO2 SLP125 T01060017 51010
KTVF 170201Z AUTO 26009KT 10SM CLR 12/02 A2987 RMK AO2 SLP123 T01220017
KTVF 170101Z AUTO 25006KT 10SM CLR 13/02 A2986 RMK AO2 SLP122 T01280017
KTVF 170001Z AUTO 27009KT 10SM CLR 15/02 A2986 RMK AO2 SLP119 T01500022 10200 20150 53005
KTVF 162301Z AUTO 27012KT 10SM CLR 18/02 A2984 RMK AO2 SLP112 T01830017
KTVF 162201Z AUTO 27017G24KT 10SM CLR 20/02 A2983 RMK AO2 SLP107 T02000017
KTVF 162101Z AUTO 24018G24KT 10SM CLR 20/02 A2982 RMK AO2 PK WND 23028/2006 SLP106 T02000022